createdAt,value
2023-03-19T00:01:56.070Z,5.63
2023-03-19T00:04:24.375Z,5.41
2023-03-19T00:06:51.137Z,5.45
2023-03-19T00:09:19.040Z,5.46
2023-03-19T00:11:45.639Z,5.45
2023-03-19T00:14:12.360Z,5.38
2023-03-19T00:16:38.944Z,5.34
2023-03-19T00:19:05.690Z,5.48
2023-03-19T00:21:32.369Z,5.47
2023-03-19T00:24:02.180Z,5.28
2023-03-19T00:26:30.108Z,5.43
2023-03-19T00:28:57.748Z,5.38
2023-03-19T00:31:25.491Z,5.20
2023-03-19T00:33:52.144Z,5.37
2023-03-19T00:36:18.972Z,5.30
2023-03-19T00:38:46.784Z,5.28
2023-03-19T00:41:13.810Z,5.24
2023-03-19T00:43:40.340Z,5.14
2023-03-19T00:46:07.223Z,5.26
2023-03-19T00:48:33.803Z,5.19
2023-03-19T00:51:07.985Z,5.13
2023-03-19T00:53:43.017Z,4.94
2023-03-19T00:56:12.048Z,5.03
2023-03-19T00:58:41.047Z,5.04
2023-03-19T01:01:13.305Z,5.06
2023-03-19T01:03:40.336Z,4.96
2023-03-19T01:06:07.372Z,5.09
2023-03-19T01:08:34.040Z,4.97
2023-03-19T01:11:12.390Z,4.95
2023-03-19T01:13:39.325Z,5.08
2023-03-19T01:16:07.037Z,5.07
2023-03-19T01:18:33.723Z,5.14
2023-03-19T01:21:00.849Z,5.23
2023-03-19T01:23:29.421Z,5.19
2023-03-19T01:25:57.441Z,5.21
2023-03-19T01:28:25.873Z,5.20
2023-03-19T01:30:52.810Z,5.17
2023-03-19T01:33:50.746Z,5.28
2023-03-19T01:36:26.348Z,5.20
2023-03-19T01:39:01.653Z,5.10
2023-03-19T01:41:28.214Z,5.12
2023-03-19T01:44:02.343Z,5.16
2023-03-19T01:46:39.687Z,5.28
2023-03-19T01:49:35.794Z,5.25
2023-03-19T01:52:17.544Z,5.29
2023-03-19T01:55:20.082Z,5.30
2023-03-19T01:57:51.175Z,5.32
2023-03-19T02:00:49.733Z,5.23
2023-03-19T02:03:16.365Z,5.36
2023-03-19T02:05:45.551Z,5.19
2023-03-19T02:08:16.834Z,5.25
2023-03-19T02:10:47.247Z,5.20
2023-03-19T02:13:14.674Z,5.28
2023-03-19T02:15:42.058Z,5.34
2023-03-19T02:18:09.511Z,5.34
2023-03-19T02:20:46.508Z,5.27
2023-03-19T02:24:03.113Z,5.27
2023-03-19T02:26:45.472Z,5.05
2023-03-19T02:29:12.705Z,5.20
2023-03-19T02:31:39.602Z,5.10
2023-03-19T02:34:13.851Z,5.14
2023-03-19T02:36:44.573Z,5.19
2023-03-19T02:39:21.058Z,5.23
2023-03-19T02:41:48.956Z,5.13
2023-03-19T02:44:17.348Z,5.14
2023-03-19T02:46:44.423Z,4.96
2023-03-19T02:49:11.524Z,5.10
2023-03-19T02:51:39.160Z,5.09
2023-03-19T02:54:06.014Z,5.10
2023-03-19T02:56:33.168Z,4.99
2023-03-19T02:58:59.893Z,4.96
2023-03-19T03:01:26.467Z,5.04
2023-03-19T03:03:53.022Z,4.95
2023-03-19T03:06:19.513Z,4.96
2023-03-19T03:08:46.234Z,5.04
2023-03-19T03:11:12.846Z,5.04
2023-03-19T03:13:39.364Z,4.99
2023-03-19T03:16:06.019Z,4.89
2023-03-19T03:18:32.816Z,4.96
2023-03-19T03:20:59.499Z,4.87
2023-03-19T03:23:26.470Z,4.94
2023-03-19T03:25:53.311Z,4.96
2023-03-19T03:28:20.745Z,4.99
2023-03-19T03:30:47.589Z,4.97
2023-03-19T03:33:14.465Z,5.00
2023-03-19T03:35:41.030Z,5.00
2023-03-19T03:38:07.721Z,4.77
2023-03-19T03:40:34.969Z,4.91
2023-03-19T03:43:02.506Z,4.90
2023-03-19T03:45:30.892Z,5.00
2023-03-19T03:47:57.553Z,5.04
2023-03-19T03:50:23.987Z,5.04
2023-03-19T03:52:52.880Z,5.06
2023-03-19T03:55:19.528Z,5.00
2023-03-19T03:57:46.141Z,5.01
2023-03-19T04:00:13.338Z,5.03
2023-03-19T04:02:40.065Z,4.90
2023-03-19T04:05:07.809Z,5.03
2023-03-19T04:07:34.737Z,5.02
2023-03-19T04:10:02.207Z,5.05
2023-03-19T04:12:29.409Z,4.95
2023-03-19T04:14:55.978Z,5.07
2023-03-19T04:17:23.690Z,5.03
2023-03-19T04:19:50.361Z,4.85
2023-03-19T04:22:16.994Z,4.94
2023-03-19T04:24:43.607Z,5.01
2023-03-19T04:27:10.086Z,4.99
2023-03-19T04:29:37.996Z,4.92
2023-03-19T04:32:05.104Z,4.82
2023-03-19T04:34:31.944Z,4.96
2023-03-19T04:36:58.853Z,5.01
2023-03-19T04:39:26.026Z,5.05
2023-03-19T04:41:52.575Z,5.04
2023-03-19T04:44:29.418Z,5.04
2023-03-19T04:46:56.855Z,5.11
2023-03-19T04:49:24.594Z,5.12
2023-03-19T04:51:51.790Z,5.20
2023-03-19T04:54:18.876Z,5.22
2023-03-19T04:56:45.399Z,5.25
2023-03-19T04:59:12.107Z,5.17
2023-03-19T05:01:39.026Z,5.29
2023-03-19T05:04:08.538Z,5.15
2023-03-19T05:06:38.301Z,5.29
2023-03-19T05:09:06.597Z,5.31
2023-03-19T05:11:33.839Z,5.31
2023-03-19T05:14:04.045Z,5.32
2023-03-19T05:16:40.754Z,5.23
2023-03-19T05:19:08.476Z,5.36
2023-03-19T05:21:35.428Z,5.41
2023-03-19T05:24:02.129Z,5.44
2023-03-19T05:26:31.042Z,5.44
2023-03-19T05:29:14.738Z,5.46
2023-03-19T05:32:03.146Z,5.44
2023-03-19T05:34:31.504Z,5.32
2023-03-19T05:36:58.448Z,5.43
2023-03-19T05:39:25.161Z,5.36
2023-03-19T05:41:52.997Z,5.43
2023-03-19T05:44:24.518Z,5.40
2023-03-19T05:47:05.982Z,5.47
2023-03-19T05:49:35.852Z,5.50
2023-03-19T05:52:04.281Z,5.48
2023-03-19T05:54:31.707Z,5.51
2023-03-19T05:57:09.814Z,5.57
2023-03-19T05:59:59.777Z,5.44
2023-03-19T06:02:33.173Z,5.62
2023-03-19T06:05:16.789Z,5.65
2023-03-19T06:07:43.796Z,5.68
2023-03-19T06:10:18.605Z,5.68
2023-03-19T06:12:47.737Z,5.75
2023-03-19T06:15:32.817Z,5.59
2023-03-19T06:18:23.667Z,5.53
2023-03-19T06:20:50.307Z,5.64
2023-03-19T06:23:17.870Z,5.72
2023-03-19T06:25:45.112Z,5.82
2023-03-19T06:28:12.682Z,5.64
2023-03-19T06:30:42.250Z,5.72
2023-03-19T06:33:32.066Z,5.88
2023-03-19T06:35:59.386Z,5.89
2023-03-19T06:38:26.568Z,5.82
2023-03-19T06:40:53.198Z,6.01
2023-03-19T06:43:19.723Z,5.94
2023-03-19T06:45:47.137Z,6.15
2023-03-19T06:48:13.717Z,6.26
2023-03-19T06:50:40.419Z,6.31
2023-03-19T06:53:07.843Z,6.19
2023-03-19T06:55:34.505Z,6.24
2023-03-19T06:58:01.766Z,6.11
2023-03-19T07:00:28.638Z,6.16
2023-03-19T07:02:55.318Z,6.43
2023-03-19T07:05:21.856Z,6.72
2023-03-19T07:07:48.362Z,6.85
2023-03-19T07:10:15.161Z,7.07
2023-03-19T07:12:41.736Z,7.05
2023-03-19T07:15:08.336Z,7.13
2023-03-19T07:17:34.867Z,7.04
2023-03-19T07:20:01.883Z,6.96
2023-03-19T07:22:28.432Z,7.04
2023-03-19T07:24:55.371Z,7.23
2023-03-19T07:27:22.104Z,7.34
2023-03-19T07:29:48.934Z,7.22
2023-03-19T07:32:15.772Z,7.42
2023-03-19T07:34:42.312Z,7.70
2023-03-19T07:37:08.778Z,7.69
2023-03-19T07:39:35.262Z,7.65
2023-03-19T07:42:01.915Z,7.61
2023-03-19T07:44:28.917Z,7.73
2023-03-19T07:46:55.436Z,7.89
2023-03-19T07:49:22.882Z,7.89
2023-03-19T07:51:49.424Z,7.77
2023-03-19T07:54:15.859Z,7.95
2023-03-19T07:56:42.409Z,7.83
2023-03-19T07:59:08.910Z,8.01
2023-03-19T08:01:35.974Z,8.15
2023-03-19T08:04:02.561Z,8.34
2023-03-19T08:06:29.751Z,8.39
2023-03-19T08:08:56.324Z,8.36
2023-03-19T08:11:22.733Z,8.36
2023-03-19T08:13:49.490Z,8.24
2023-03-19T08:16:16.111Z,8.02
2023-03-19T08:18:42.707Z,8.27
2023-03-19T08:21:09.206Z,8.41
2023-03-19T08:23:35.760Z,8.49
2023-03-19T08:26:02.313Z,8.63
2023-03-19T08:28:29.063Z,8.53
2023-03-19T08:30:56.109Z,8.75
2023-03-19T08:33:22.761Z,8.72
2023-03-19T08:35:49.274Z,8.95
2023-03-19T08:38:15.904Z,8.82
2023-03-19T08:40:42.615Z,8.65
2023-03-19T08:43:09.128Z,8.30
2023-03-19T08:45:35.598Z,8.36
2023-03-19T08:48:02.191Z,8.39
2023-03-19T08:50:28.728Z,8.59
2023-03-19T08:52:56.435Z,8.16
2023-03-19T08:55:22.973Z,8.62
2023-03-19T08:57:49.495Z,8.45
2023-03-19T09:00:16.397Z,8.67
2023-03-19T09:02:42.894Z,8.60
2023-03-19T09:05:09.375Z,8.64
2023-03-19T09:07:35.888Z,8.55
2023-03-19T09:10:02.329Z,8.51
2023-03-19T09:12:28.929Z,8.40
2023-03-19T09:14:55.537Z,8.49
2023-03-19T09:17:22.174Z,8.40
2023-03-19T09:19:48.709Z,8.47
2023-03-19T09:22:15.275Z,8.47
2023-03-19T09:24:41.797Z,8.45
2023-03-19T09:27:08.263Z,8.66
2023-03-19T09:29:35.468Z,8.71
2023-03-19T09:32:02.588Z,8.93
2023-03-19T09:34:29.289Z,8.95
2023-03-19T09:36:55.857Z,9.12
2023-03-19T09:39:22.429Z,9.26
2023-03-19T09:42:13.401Z,9.40
2023-03-19T09:44:44.240Z,9.54
2023-03-19T09:47:32.691Z,9.54
2023-03-19T09:50:04.253Z,9.52
2023-03-19T09:52:50.940Z,9.63
2023-03-19T09:55:23.609Z,9.74
2023-03-19T09:57:51.311Z,9.74
2023-03-19T10:00:32.391Z,10.00
2023-03-19T10:03:04.038Z,10.22
2023-03-19T10:05:57.957Z,10.28
2023-03-19T10:08:40.654Z,10.45
2023-03-19T10:11:34.314Z,10.34
2023-03-19T10:14:39.095Z,10.51
2023-03-19T10:17:12.999Z,10.69
2023-03-19T10:19:47.326Z,10.69
2023-03-19T10:22:21.967Z,10.74
2023-03-19T10:24:50.444Z,10.88
2023-03-19T10:27:20.012Z,10.84
2023-03-19T10:29:48.377Z,11.05
2023-03-19T10:32:28.292Z,11.07
2023-03-19T10:34:59.141Z,10.95
2023-03-19T10:37:29.411Z,10.77
2023-03-19T10:39:58.764Z,10.90
2023-03-19T10:42:34.463Z,11.06
2023-03-19T10:45:11.219Z,11.20
2023-03-19T10:47:39.763Z,11.30
2023-03-19T10:50:07.647Z,11.45
2023-03-19T10:52:36.764Z,11.32
2023-03-19T10:55:26.234Z,11.40
2023-03-19T10:58:02.850Z,11.66
2023-03-19T11:00:35.318Z,11.56
2023-03-19T11:03:05.988Z,11.76
2023-03-19T11:05:34.481Z,11.77
2023-03-19T11:08:06.972Z,11.70
2023-03-19T11:10:36.040Z,11.70
2023-03-19T11:13:26.561Z,11.79
2023-03-19T11:15:57.163Z,12.09
2023-03-19T11:18:37.131Z,12.12
2023-03-19T11:21:21.490Z,11.97
2023-03-19T11:23:53.673Z,11.72
2023-03-19T11:26:21.627Z,11.71
2023-03-19T11:28:52.173Z,11.58
2023-03-19T11:31:28.869Z,11.83
2023-03-19T11:34:32.203Z,11.83
2023-03-19T11:37:34.171Z,11.92
2023-03-19T11:40:45.550Z,11.68
2023-03-19T11:43:48.110Z,11.75
2023-03-19T11:46:33.294Z,11.89
2023-03-19T11:49:16.648Z,12.18
2023-03-19T11:51:51.826Z,12.27
2023-03-19T11:54:39.717Z,11.73
2023-03-19T11:57:18.182Z,12.31
2023-03-19T11:59:45.107Z,12.51
2023-03-19T12:02:17.684Z,12.33
2023-03-19T12:05:17.678Z,12.72
2023-03-19T12:08:13.793Z,12.71
2023-03-19T12:10:46.276Z,13.10
2023-03-19T12:13:22.938Z,13.19
2023-03-19T12:15:55.905Z,12.80
2023-03-19T12:18:59.838Z,12.79
2023-03-19T12:21:53.906Z,12.66
2023-03-19T12:24:33.156Z,13.28
2023-03-19T12:27:23.428Z,13.41
2023-03-19T12:30:03.635Z,13.00
2023-03-19T12:32:33.164Z,13.47
2023-03-19T12:35:04.606Z,13.51
2023-03-19T12:37:41.479Z,13.22
2023-03-19T12:40:28.267Z,13.22
2023-03-19T12:42:59.165Z,13.11
2023-03-19T12:45:37.367Z,12.80
2023-03-19T12:48:20.539Z,13.03
2023-03-19T12:50:51.571Z,12.97
2023-03-19T12:53:49.618Z,13.11
2023-03-19T12:56:29.419Z,13.08
2023-03-19T12:59:32.712Z,12.94
2023-03-19T13:02:44.136Z,12.78
2023-03-19T13:05:26.109Z,13.04
2023-03-19T13:08:20.584Z,12.92
2023-03-19T13:10:47.106Z,12.50
2023-03-19T13:13:32.958Z,12.48
2023-03-19T13:16:10.394Z,12.51
2023-03-19T13:18:58.188Z,12.14
2023-03-19T13:21:32.212Z,12.15
2023-03-19T13:24:22.043Z,12.04
2023-03-19T13:26:50.361Z,12.30
2023-03-19T13:29:28.863Z,12.34
2023-03-19T13:32:22.403Z,12.36
2023-03-19T13:34:49.138Z,12.12
2023-03-19T13:37:21.190Z,12.13
2023-03-19T13:39:49.357Z,12.33
2023-03-19T13:42:37.369Z,12.16
2023-03-19T13:45:31.318Z,12.21
2023-03-19T13:48:24.374Z,12.39
2023-03-19T13:50:59.680Z,12.57
2023-03-19T13:53:39.355Z,12.59
2023-03-19T13:56:26.262Z,12.82
2023-03-19T13:59:14.628Z,13.33
2023-03-19T14:01:45.205Z,13.57
2023-03-19T14:04:22.463Z,13.38
2023-03-19T14:06:53.057Z,13.26
2023-03-19T14:09:43.073Z,13.57
2023-03-19T14:12:23.449Z,13.41
2023-03-19T14:14:55.445Z,13.39
2023-03-19T14:17:27.567Z,13.42
2023-03-19T14:19:54.796Z,13.67
2023-03-19T14:22:41.521Z,13.62
2023-03-19T14:25:18.000Z,13.60
2023-03-19T14:27:48.152Z,13.77
2023-03-19T14:30:32.578Z,14.08
2023-03-19T14:33:05.840Z,13.81
2023-03-19T14:35:36.648Z,13.85
2023-03-19T14:38:13.799Z,14.06
2023-03-19T14:40:44.886Z,14.09
2023-03-19T14:43:34.669Z,13.89
2023-03-19T14:46:05.461Z,14.06
2023-03-19T14:49:02.486Z,13.92
2023-03-19T14:51:43.868Z,13.79
2023-03-19T14:54:28.800Z,13.80
2023-03-19T14:56:56.833Z,13.83
2023-03-19T14:59:23.578Z,13.32
2023-03-19T15:01:52.963Z,13.72
2023-03-19T15:04:23.570Z,13.70
2023-03-19T15:06:55.190Z,13.87
2023-03-19T15:09:31.272Z,13.68
2023-03-19T15:12:31.437Z,13.75
2023-03-19T15:15:13.115Z,13.67
2023-03-19T15:17:39.705Z,13.57
2023-03-19T15:20:22.404Z,13.75
2023-03-19T15:23:01.793Z,13.64
2023-03-19T15:25:28.573Z,13.64
2023-03-19T15:28:15.839Z,13.70
2023-03-19T15:30:54.759Z,13.51
2023-03-19T15:33:40.162Z,13.53
2023-03-19T15:36:10.189Z,13.50
2023-03-19T15:38:46.061Z,13.38
2023-03-19T15:41:13.573Z,12.98
2023-03-19T15:43:41.126Z,13.22
2023-03-19T15:46:12.244Z,12.93
2023-03-19T15:48:57.293Z,12.62
2023-03-19T15:51:26.707Z,12.35
2023-03-19T15:53:54.156Z,12.17
2023-03-19T15:56:21.556Z,11.83
2023-03-19T15:58:53.173Z,11.95
2023-03-19T16:01:21.418Z,11.79
2023-03-19T16:04:02.056Z,12.04
2023-03-19T16:06:31.823Z,11.98
2023-03-19T16:09:30.626Z,11.96
2023-03-19T16:11:57.675Z,11.72
2023-03-19T16:14:31.509Z,11.82
2023-03-19T16:17:15.399Z,11.66
2023-03-19T16:19:53.066Z,11.45
2023-03-19T16:22:25.348Z,11.29
2023-03-19T16:24:53.762Z,11.36
2023-03-19T16:27:22.566Z,11.10
2023-03-19T16:29:59.789Z,10.80
2023-03-19T16:32:31.635Z,11.02
2023-03-19T16:35:05.953Z,10.89
2023-03-19T16:37:37.383Z,10.88
2023-03-19T16:40:16.517Z,10.84
2023-03-19T16:42:54.199Z,10.70
2023-03-19T16:45:29.562Z,10.56
2023-03-19T16:47:57.917Z,10.63
2023-03-19T16:50:32.155Z,10.57
2023-03-19T16:53:00.838Z,10.52
2023-03-19T16:55:32.097Z,10.07
2023-03-19T16:58:19.895Z,10.44
2023-03-19T17:00:47.307Z,10.28
2023-03-19T17:03:18.201Z,10.35
2023-03-19T17:05:46.725Z,10.14
2023-03-19T17:08:13.897Z,10.11
2023-03-19T17:10:44.749Z,10.04
2023-03-19T17:13:28.191Z,9.98
2023-03-19T17:15:57.007Z,9.78
2023-03-19T17:18:26.747Z,9.92
2023-03-19T17:21:12.393Z,9.87
2023-03-19T17:23:38.957Z,9.74
2023-03-19T17:26:13.539Z,9.86
2023-03-19T17:28:40.301Z,9.57
2023-03-19T17:31:32.315Z,9.64
2023-03-19T17:34:10.103Z,9.60
2023-03-19T17:36:37.062Z,9.36
2023-03-19T17:39:04.476Z,9.32
2023-03-19T17:41:32.842Z,9.38
2023-03-19T17:44:00.261Z,9.19
2023-03-19T17:46:27.426Z,9.45
2023-03-19T17:48:55.674Z,9.23
2023-03-19T17:51:25.758Z,9.19
2023-03-19T17:53:55.949Z,9.28
2023-03-19T17:56:27.860Z,9.26
2023-03-19T17:58:54.553Z,9.31
2023-03-19T18:01:24.052Z,9.23
2023-03-19T18:03:51.921Z,9.23
2023-03-19T18:06:20.877Z,9.27
2023-03-19T18:08:47.666Z,9.37
2023-03-19T18:11:14.518Z,9.42
2023-03-19T18:13:41.990Z,9.56
2023-03-19T18:16:28.240Z,9.48
2023-03-19T18:18:58.994Z,9.75
2023-03-19T18:21:26.954Z,9.63
2023-03-19T18:23:54.279Z,9.61
2023-03-19T18:26:20.715Z,9.55
2023-03-19T18:28:47.222Z,9.64
2023-03-19T18:31:18.129Z,9.57
2023-03-19T18:33:51.463Z,9.36
2023-03-19T18:36:25.661Z,9.36
2023-03-19T18:38:55.001Z,9.17
2023-03-19T18:41:23.757Z,9.27
2023-03-19T18:44:03.972Z,9.04
2023-03-19T18:46:33.090Z,9.20
2023-03-19T18:49:02.551Z,9.04
2023-03-19T18:51:29.550Z,9.00
2023-03-19T18:53:56.147Z,8.76
2023-03-19T18:56:26.227Z,8.83
2023-03-19T18:58:54.762Z,8.88
2023-03-19T19:01:21.447Z,8.85
2023-03-19T19:03:48.611Z,8.63
2023-03-19T19:06:28.290Z,8.81
2023-03-19T19:09:01.527Z,8.73
2023-03-19T19:11:28.075Z,8.61
2023-03-19T19:13:57.100Z,8.59
2023-03-19T19:16:31.258Z,8.56
2023-03-19T19:18:58.008Z,8.36
2023-03-19T19:21:24.579Z,8.46
2023-03-19T19:23:51.094Z,8.42
2023-03-19T19:26:29.619Z,8.22
2023-03-19T19:28:59.230Z,8.16
2023-03-19T19:31:28.260Z,8.15
2023-03-19T19:33:55.671Z,7.84
2023-03-19T19:36:23.752Z,8.11
2023-03-19T19:38:51.946Z,7.99
2023-03-19T19:41:22.872Z,7.88
2023-03-19T19:43:51.143Z,7.62
2023-03-19T19:46:19.191Z,7.76
2023-03-19T19:48:46.108Z,7.52
2023-03-19T19:51:20.290Z,7.63
2023-03-19T19:53:47.144Z,7.38
2023-03-19T19:56:22.190Z,7.65
2023-03-19T19:58:51.535Z,7.47
2023-03-19T20:01:23.723Z,7.43
2023-03-19T20:03:51.892Z,7.32
2023-03-19T20:06:19.183Z,7.52
2023-03-19T20:08:49.184Z,7.53
2023-03-19T20:11:17.022Z,7.43
2023-03-19T20:13:49.390Z,7.47
2023-03-19T20:16:16.906Z,7.38
2023-03-19T20:18:44.315Z,7.37
2023-03-19T20:21:12.553Z,7.19
2023-03-19T20:23:41.347Z,7.27
2023-03-19T20:26:12.857Z,7.01
2023-03-19T20:28:39.737Z,6.99
2023-03-19T20:31:06.923Z,7.01
2023-03-19T20:33:34.501Z,6.80
2023-03-19T20:36:01.682Z,7.12
2023-03-19T20:38:29.097Z,7.30
2023-03-19T20:40:57.396Z,6.90
2023-03-19T20:43:33.678Z,7.35
2023-03-19T20:46:05.866Z,7.37
2023-03-19T20:48:33.256Z,7.38
2023-03-19T20:51:01.964Z,7.42
2023-03-19T20:53:29.243Z,7.46
2023-03-19T20:55:56.409Z,7.39
2023-03-19T20:58:29.795Z,7.38
2023-03-19T21:00:57.959Z,7.28
2023-03-19T21:03:27.159Z,7.46
2023-03-19T21:05:58.266Z,7.37
2023-03-19T21:08:33.377Z,7.37
2023-03-19T21:11:02.074Z,7.42
2023-03-19T21:13:29.380Z,7.41
2023-03-19T21:15:56.274Z,7.17
2023-03-19T21:18:22.786Z,7.40
2023-03-19T21:20:53.805Z,7.47
2023-03-19T21:23:31.789Z,7.55
2023-03-19T21:26:00.230Z,7.49
2023-03-19T21:28:37.388Z,7.44
2023-03-19T21:31:05.323Z,7.42
2023-03-19T21:33:34.122Z,7.38
2023-03-19T21:36:02.467Z,7.34
2023-03-19T21:38:28.975Z,7.12
2023-03-19T21:40:57.935Z,7.40
2023-03-19T21:43:43.776Z,7.08
2023-03-19T21:46:24.497Z,7.36
2023-03-19T21:48:53.708Z,7.33
2023-03-19T21:51:20.894Z,7.37
2023-03-19T21:53:47.642Z,7.27
2023-03-19T21:56:35.484Z,7.29
2023-03-19T21:59:08.333Z,7.14
2023-03-19T22:01:34.884Z,7.21
2023-03-19T22:04:01.316Z,7.22
2023-03-19T22:06:27.995Z,7.01
2023-03-19T22:08:54.892Z,7.10
2023-03-19T22:11:30.385Z,7.01
2023-03-19T22:14:19.765Z,6.86
2023-03-19T22:16:47.276Z,6.92
2023-03-19T22:19:19.216Z,6.65
2023-03-19T22:21:46.699Z,6.88
2023-03-19T22:24:13.193Z,6.43
2023-03-19T22:26:40.822Z,6.73
2023-03-19T22:29:11.315Z,6.69
2023-03-19T22:31:38.038Z,6.47
2023-03-19T22:34:04.688Z,6.68
2023-03-19T22:36:31.047Z,6.67
2023-03-19T22:38:57.794Z,6.63
2023-03-19T22:41:31.112Z,6.81
2023-03-19T22:44:00.074Z,6.61
2023-03-19T22:46:27.726Z,6.46
2023-03-19T22:48:54.959Z,6.69
2023-03-19T22:51:24.773Z,6.66
2023-03-19T22:53:52.026Z,6.47
2023-03-19T22:56:19.678Z,6.48
2023-03-19T22:58:49.032Z,6.41
2023-03-19T23:17:30.397Z,5.65
2023-03-19T23:19:57.602Z,5.75
2023-03-19T23:22:24.106Z,5.79
2023-03-19T23:24:50.616Z,5.86
2023-03-19T23:27:23.906Z,5.95
2023-03-19T23:29:51.111Z,6.05
2023-03-19T23:32:17.608Z,6.00
2023-03-19T23:34:57.786Z,6.04
2023-03-19T23:37:27.339Z,5.96
2023-03-19T23:39:53.931Z,6.07
2023-03-19T23:42:27.626Z,6.15
2023-03-19T23:44:59.399Z,6.18
2023-03-19T23:47:27.168Z,6.34
2023-03-19T23:49:53.724Z,6.38
2023-03-19T23:52:20.511Z,6.42
2023-03-19T23:54:47.564Z,6.40
2023-03-19T23:57:16.705Z,6.42
2023-03-19T23:59:45.034Z,6.47
